createdAt,value
2022-10-19T00:00:47.858Z,3.80
2022-10-19T00:03:28.430Z,5.90
2022-10-19T00:05:55.157Z,5.40
2022-10-19T00:08:21.785Z,3.20
2022-10-19T00:10:48.373Z,6.60
2022-10-19T00:13:15.029Z,6.60
2022-10-19T00:15:41.867Z,3.60
2022-10-19T00:18:08.983Z,5.20
2022-10-19T00:20:36.572Z,4.10
2022-10-19T00:23:03.371Z,9.10
2022-10-19T00:25:30.017Z,4.60
2022-10-19T00:27:56.756Z,3.20
2022-10-19T00:30:23.718Z,6.60
2022-10-19T00:32:50.338Z,6.90
2022-10-19T00:35:17.122Z,4.00
2022-10-19T00:37:44.019Z,5.10
2022-10-19T00:40:11.307Z,4.70
2022-10-19T00:42:38.129Z,3.60
2022-10-19T00:45:12.351Z,4.20
2022-10-19T00:47:39.851Z,5.30
2022-10-19T00:50:07.546Z,6.10
2022-10-19T00:52:34.415Z,5.10
2022-10-19T00:55:01.944Z,5.90
2022-10-19T00:58:30.001Z,7.70
2022-10-19T01:01:01.138Z,3.40
2022-10-19T01:03:28.710Z,3.60
2022-10-19T01:05:56.052Z,5.30
2022-10-19T01:08:23.319Z,4.20
2022-10-19T01:11:08.508Z,4.70
2022-10-19T01:13:41.215Z,5.50
2022-10-19T01:16:19.820Z,5.10
2022-10-19T01:19:02.778Z,4.70
2022-10-19T01:21:54.150Z,4.50
2022-10-19T01:24:41.273Z,2.80
2022-10-19T01:27:52.888Z,6.00
2022-10-19T01:30:44.342Z,4.70
2022-10-19T01:33:22.413Z,4.10
2022-10-19T01:36:22.812Z,4.50
2022-10-19T01:39:08.017Z,6.40
2022-10-19T01:41:57.811Z,2.50
2022-10-19T01:47:25.539Z,3.30
2022-10-19T01:50:25.163Z,3.20
2022-10-19T01:52:54.805Z,6.70
2022-10-19T01:57:58.777Z,2.70
2022-10-19T02:00:27.745Z,4.50
2022-10-19T02:02:55.461Z,3.60
2022-10-19T02:05:28.168Z,4.70
2022-10-19T02:07:59.677Z,4.40
2022-10-19T02:10:28.701Z,3.50
2022-10-19T02:12:57.903Z,5.20
2022-10-19T02:15:27.599Z,7.10
2022-10-19T02:17:59.185Z,3.50
2022-10-19T02:20:27.967Z,3.00
2022-10-19T02:22:55.003Z,4.70
2022-10-19T02:25:23.423Z,5.40
2022-10-19T02:27:50.342Z,5.50
2022-10-19T02:30:21.243Z,4.50
2022-10-19T02:32:50.055Z,2.10
2022-10-19T02:35:17.374Z,3.50
2022-10-19T02:37:44.779Z,5.30
2022-10-19T02:40:12.149Z,4.70
2022-10-19T02:42:43.912Z,5.10
2022-10-19T02:45:27.840Z,3.20
2022-10-19T02:48:00.694Z,4.70
2022-10-19T02:50:27.957Z,2.00
2022-10-19T02:52:54.898Z,2.90
2022-10-19T02:55:21.736Z,5.70
2022-10-19T02:57:48.638Z,4.40
2022-10-19T03:00:15.869Z,5.50
2022-10-19T03:02:42.798Z,5.40
2022-10-19T03:05:09.774Z,7.30
2022-10-19T03:07:37.022Z,4.20
2022-10-19T03:10:04.481Z,7.70
2022-10-19T03:12:31.344Z,5.50
2022-10-19T03:14:58.212Z,5.60
2022-10-19T03:17:25.146Z,5.40
2022-10-19T03:19:52.024Z,4.60
2022-10-19T03:22:18.837Z,6.40
2022-10-19T03:24:45.722Z,5.10
2022-10-19T03:27:12.685Z,5.30
2022-10-19T03:29:39.541Z,3.30
2022-10-19T03:32:06.542Z,4.30
2022-10-19T03:34:33.439Z,5.60
2022-10-19T03:37:00.337Z,4.70
2022-10-19T03:39:27.176Z,5.00
2022-10-19T03:41:54.040Z,3.80
2022-10-19T03:44:20.964Z,8.70
2022-10-19T03:46:47.838Z,3.50
2022-10-19T03:49:14.768Z,3.50
2022-10-19T03:51:41.709Z,7.60
2022-10-19T03:54:14.194Z,5.80
2022-10-19T03:56:42.119Z,5.40
2022-10-19T03:59:13.976Z,4.20
2022-10-19T04:01:43.865Z,4.40
2022-10-19T04:04:17.096Z,4.10
2022-10-19T04:06:46.414Z,6.10
2022-10-19T04:09:15.854Z,5.90
2022-10-19T04:11:43.360Z,4.70
2022-10-19T04:14:19.104Z,4.90
2022-10-19T04:16:54.422Z,4.20
2022-10-19T04:19:22.212Z,3.50
2022-10-19T04:21:49.405Z,4.50
2022-10-19T04:24:18.122Z,4.70
2022-10-19T04:26:48.113Z,2.00
2022-10-19T04:29:16.343Z,2.60
2022-10-19T04:31:43.373Z,5.50
2022-10-19T04:34:10.390Z,1.60
2022-10-19T04:36:37.617Z,3.20
2022-10-19T04:39:05.245Z,2.50
2022-10-19T04:41:32.757Z,3.80
2022-10-19T04:44:02.452Z,2.20
2022-10-19T04:46:30.306Z,1.20
2022-10-19T04:48:58.796Z,3.90
2022-10-19T04:51:26.597Z,1.20
2022-10-19T04:53:57.010Z,2.40
2022-10-19T04:56:27.115Z,1.90
2022-10-19T04:58:56.986Z,1.30
2022-10-19T05:01:25.633Z,2.00
2022-10-19T05:03:54.706Z,2.70
2022-10-19T05:06:21.922Z,3.20
2022-10-19T05:08:52.202Z,2.80
2022-10-19T05:11:20.180Z,1.60
2022-10-19T05:13:47.951Z,2.00
2022-10-19T05:16:18.472Z,2.60
2022-10-19T05:18:50.066Z,2.70
2022-10-19T05:21:17.779Z,1.00
2022-10-19T05:23:45.290Z,3.00
2022-10-19T05:26:17.521Z,2.00
2022-10-19T05:28:59.930Z,1.90
2022-10-19T05:31:29.801Z,4.70
2022-10-19T05:33:57.178Z,3.80
2022-10-19T05:36:27.064Z,2.10
2022-10-19T05:41:23.791Z,3.20
2022-10-19T05:43:56.868Z,1.10
2022-10-19T05:46:25.925Z,3.90
2022-10-19T05:48:55.343Z,4.70
2022-10-19T05:51:23.549Z,6.00
2022-10-19T05:53:51.876Z,1.30
2022-10-19T05:56:21.484Z,3.80
2022-10-19T05:58:49.297Z,6.10
2022-10-19T06:01:18.594Z,2.00
2022-10-19T06:03:46.644Z,1.80
2022-10-19T06:06:13.710Z,2.50
2022-10-19T06:08:40.766Z,3.20
2022-10-19T06:11:16.858Z,2.70
2022-10-19T06:13:45.063Z,1.80
2022-10-19T06:16:14.586Z,4.00
2022-10-19T06:18:42.355Z,1.10
2022-10-19T06:21:14.529Z,1.50
2022-10-19T06:26:14.622Z,2.20
2022-10-19T06:28:43.660Z,2.70
2022-10-19T06:31:12.209Z,1.30
2022-10-19T06:33:40.345Z,1.40
2022-10-19T06:36:09.866Z,1.30
2022-10-19T06:38:37.273Z,1.80
2022-10-19T06:41:04.360Z,2.40
2022-10-19T06:43:31.771Z,1.20
2022-10-19T06:45:58.840Z,2.90
2022-10-19T06:48:25.714Z,2.80
2022-10-19T06:50:57.213Z,1.90
2022-10-19T06:53:24.677Z,1.40
2022-10-19T06:55:51.562Z,1.30
2022-10-19T06:58:18.424Z,0.90
2022-10-19T07:00:45.470Z,0.50
2022-10-19T07:03:12.328Z,0.70
2022-10-19T07:05:39.243Z,2.00
2022-10-19T07:08:06.228Z,3.10
2022-10-19T07:10:33.157Z,2.70
2022-10-19T07:13:00.025Z,2.10
2022-10-19T07:15:26.915Z,2.80
2022-10-19T07:17:53.845Z,5.20
2022-10-19T07:20:20.732Z,1.80
2022-10-19T07:22:47.626Z,3.40
2022-10-19T07:25:14.581Z,3.60
2022-10-19T07:27:41.717Z,2.10
2022-10-19T07:30:09.092Z,2.10
2022-10-19T07:32:35.980Z,1.70
2022-10-19T07:35:03.104Z,1.30
2022-10-19T07:37:29.957Z,2.90
2022-10-19T07:39:56.958Z,3.30
2022-10-19T07:42:23.942Z,2.70
2022-10-19T07:44:50.752Z,2.30
2022-10-19T07:47:17.689Z,1.70
2022-10-19T07:49:44.762Z,0.90
2022-10-19T07:52:11.714Z,2.60
2022-10-19T07:54:38.588Z,1.20
2022-10-19T07:57:05.543Z,1.10
2022-10-19T07:59:32.494Z,2.00
2022-10-19T08:02:01.989Z,1.70
2022-10-19T08:04:59.122Z,2.70
2022-10-19T08:07:15.944Z,2.70
2022-10-19T08:09:58.291Z,2.70
2022-10-19T08:12:25.255Z,2.20
2022-10-19T08:14:53.170Z,2.40
2022-10-19T08:17:20.080Z,1.90
2022-10-19T08:19:47.330Z,1.00
2022-10-19T08:22:14.527Z,1.40
2022-10-19T08:24:41.532Z,2.40
2022-10-19T08:27:08.890Z,3.20
2022-10-19T08:29:35.771Z,1.20
2022-10-19T08:32:02.915Z,3.10
2022-10-19T08:34:29.806Z,1.60
2022-10-19T08:36:56.752Z,3.10
2022-10-19T08:39:23.943Z,1.20
2022-10-19T08:42:03.034Z,3.60
2022-10-19T08:44:52.079Z,2.50
2022-10-19T08:47:25.018Z,0.80
2022-10-19T08:49:52.069Z,2.40
2022-10-19T08:52:23.989Z,1.40
2022-10-19T08:55:00.480Z,3.40
2022-10-19T08:58:06.043Z,2.30
2022-10-19T09:00:50.490Z,2.40
2022-10-19T09:03:56.554Z,1.90
2022-10-19T09:06:52.170Z,0.80
2022-10-19T09:09:20.630Z,1.10
2022-10-19T09:11:50.201Z,2.60
2022-10-19T09:14:47.869Z,0.50
2022-10-19T09:17:18.613Z,0.60
2022-10-19T09:19:45.593Z,0.90
2022-10-19T09:22:30.256Z,2.30
2022-10-19T09:25:20.385Z,1.20
2022-10-19T09:27:52.580Z,0.50
2022-10-19T09:30:22.796Z,1.60
2022-10-19T09:33:02.184Z,1.70
2022-10-19T09:35:48.108Z,0.30
2022-10-19T09:38:19.369Z,1.10
2022-10-19T09:40:46.418Z,1.50
2022-10-19T09:43:21.047Z,1.10
2022-10-19T09:46:20.561Z,1.00
2022-10-19T09:48:50.111Z,1.00
2022-10-19T09:51:18.269Z,2.50
2022-10-19T09:53:55.456Z,1.10
2022-10-19T09:56:25.389Z,0.60
2022-10-19T09:58:55.110Z,0.80
2022-10-19T10:01:43.054Z,0.70
2022-10-19T10:04:16.199Z,0.50
2022-10-19T10:06:46.237Z,1.00
2022-10-19T10:09:25.762Z,1.10
2022-10-19T10:11:56.889Z,1.60
2022-10-19T10:14:31.207Z,1.20
2022-10-19T10:17:03.801Z,1.80
2022-10-19T10:19:32.962Z,1.60
2022-10-19T10:22:00.016Z,1.00
2022-10-19T10:24:32.195Z,0.50
2022-10-19T10:27:05.694Z,0.50
2022-10-19T10:29:35.251Z,0.60
2022-10-19T10:32:13.446Z,1.20
2022-10-19T10:34:50.964Z,1.10
2022-10-19T10:37:28.097Z,0.70
2022-10-19T10:39:59.195Z,3.10
2022-10-19T10:42:42.596Z,2.00
2022-10-19T10:45:28.908Z,0.30
2022-10-19T10:47:56.875Z,1.50
2022-10-19T10:50:32.144Z,1.40
2022-10-19T10:53:07.602Z,3.60
2022-10-19T10:55:34.719Z,2.60
2022-10-19T10:58:17.859Z,2.60
2022-10-19T11:00:47.467Z,3.50
2022-10-19T11:03:21.542Z,1.10
2022-10-19T11:05:56.547Z,4.90
2022-10-19T11:08:48.872Z,2.70
2022-10-19T11:11:24.557Z,1.80
2022-10-19T11:13:58.690Z,0.70
2022-10-19T11:16:38.096Z,2.00
2022-10-19T11:19:31.538Z,8.20
2022-10-19T11:22:13.348Z,6.30
2022-10-19T11:25:15.242Z,1.00
2022-10-19T11:27:55.083Z,1.10
2022-10-19T11:33:09.941Z,4.20
2022-10-19T11:35:52.670Z,1.10
2022-10-19T11:38:37.907Z,1.00
2022-10-19T11:41:28.246Z,2.90
2022-10-19T11:44:19.948Z,1.80
2022-10-19T11:47:10.890Z,1.20
2022-10-19T11:49:58.110Z,2.30
2022-10-19T11:52:49.604Z,5.70
2022-10-19T11:55:35.004Z,3.30
2022-10-19T11:58:30.017Z,5.00
2022-10-19T12:01:21.481Z,1.40
2022-10-19T12:03:57.491Z,1.60
2022-10-19T12:06:53.609Z,4.10
2022-10-19T12:09:35.631Z,2.60
2022-10-19T12:12:30.314Z,1.10
2022-10-19T12:15:23.406Z,0.70
2022-10-19T12:17:53.714Z,2.50
2022-10-19T12:20:42.658Z,3.00
2022-10-19T12:23:32.767Z,2.70
2022-10-19T12:26:03.829Z,5.60
2022-10-19T12:28:35.119Z,1.10
2022-10-19T12:31:04.216Z,1.50
2022-10-19T12:33:37.712Z,1.30
2022-10-19T12:36:24.306Z,0.80
2022-10-19T12:38:59.026Z,3.90
2022-10-19T12:41:35.636Z,1.50
2022-10-19T12:47:01.547Z,0.80
2022-10-19T12:49:28.523Z,2.00
2022-10-19T12:52:00.244Z,1.70
2022-10-19T12:54:32.940Z,1.10
2022-10-19T12:57:02.488Z,1.00
2022-10-19T12:59:38.942Z,1.60
2022-10-19T13:02:28.844Z,0.60
2022-10-19T13:04:55.958Z,3.40
2022-10-19T13:07:25.977Z,0.60
2022-10-19T13:12:28.521Z,0.50
2022-10-19T13:15:03.594Z,2.10
2022-10-19T13:17:36.664Z,1.10
2022-10-19T13:20:12.788Z,1.40
2022-10-19T13:22:52.481Z,0.70
2022-10-19T13:25:27.565Z,1.30
2022-10-19T13:28:17.219Z,3.40
2022-10-19T13:30:44.151Z,1.20
2022-10-19T13:33:29.163Z,0.80
2022-10-19T13:35:58.884Z,0.50
2022-10-19T13:41:18.615Z,2.60
2022-10-19T13:43:55.332Z,0.50
2022-10-19T13:46:28.035Z,1.60
2022-10-19T13:49:01.302Z,1.40
2022-10-19T13:51:31.488Z,1.20
2022-10-19T13:54:04.461Z,2.50
2022-10-19T13:56:44.880Z,2.30
2022-10-19T13:59:30.140Z,1.10
2022-10-19T14:02:18.668Z,0.60
2022-10-19T14:05:05.262Z,1.20
2022-10-19T14:07:46.219Z,0.40
2022-10-19T14:10:22.741Z,0.50
2022-10-19T14:12:56.388Z,0.50
2022-10-19T14:15:33.005Z,0.30
2022-10-19T14:18:03.613Z,0.60
2022-10-19T14:20:38.329Z,0.40
2022-10-19T14:23:27.064Z,1.20
2022-10-19T14:26:00.530Z,3.70
2022-10-19T14:28:28.092Z,0.30
2022-10-19T14:30:58.005Z,0.40
2022-10-19T14:35:53.662Z,0.90
2022-10-19T14:38:36.310Z,0.70
2022-10-19T14:41:06.077Z,1.60
2022-10-19T14:46:06.725Z,1.30
2022-10-19T14:48:45.191Z,3.30
2022-10-19T14:51:48.508Z,1.90
2022-10-19T14:54:35.687Z,3.40
2022-10-19T14:57:26.482Z,2.30
2022-10-19T15:00:00.250Z,2.90
2022-10-19T15:02:32.203Z,2.50
2022-10-19T15:05:01.684Z,0.80
2022-10-19T15:07:39.238Z,0.40
2022-10-19T15:10:17.034Z,1.20
2022-10-19T15:12:44.905Z,1.20
2022-10-19T15:15:24.614Z,2.70
2022-10-19T15:17:54.222Z,4.50
2022-10-19T15:20:43.871Z,4.20
2022-10-19T15:26:16.999Z,5.50
2022-10-19T15:28:48.481Z,3.50
2022-10-19T15:31:29.308Z,2.80
2022-10-19T15:34:01.097Z,2.20
2022-10-19T15:36:30.002Z,2.60
2022-10-19T15:39:32.709Z,1.60
2022-10-19T15:42:22.609Z,2.90
2022-10-19T15:44:49.621Z,1.70
2022-10-19T15:47:18.472Z,4.80
2022-10-19T15:49:45.405Z,1.20
2022-10-19T15:52:14.991Z,0.90
2022-10-19T15:54:42.456Z,3.60
2022-10-19T15:57:24.094Z,18.70
2022-10-19T15:59:51.089Z,8.90
2022-10-19T16:02:18.106Z,8.00
2022-10-19T16:04:44.974Z,11.10
2022-10-19T16:07:21.312Z,11.30
2022-10-19T16:09:48.197Z,6.70
2022-10-19T16:12:15.230Z,3.50
2022-10-19T16:14:42.148Z,2.30
2022-10-19T16:17:12.571Z,2.20
2022-10-19T16:19:39.438Z,4.50
2022-10-19T16:22:06.283Z,4.30
2022-10-19T16:24:33.615Z,5.80
2022-10-19T16:27:00.654Z,5.30
2022-10-19T16:29:29.135Z,11.60
2022-10-19T16:31:56.363Z,15.30
2022-10-19T16:34:23.397Z,18.10
2022-10-19T16:36:50.407Z,19.10
2022-10-19T16:39:17.467Z,13.00
2022-10-19T16:41:44.339Z,12.10
2022-10-19T16:44:12.251Z,13.30
2022-10-19T16:46:39.158Z,15.40
2022-10-19T16:49:06.059Z,21.10
2022-10-19T16:51:35.627Z,21.90
2022-10-19T16:54:05.186Z,22.10
2022-10-19T16:56:33.083Z,24.50
2022-10-19T16:59:06.027Z,22.80
2022-10-19T17:01:34.424Z,16.70
2022-10-19T17:04:01.418Z,14.50
2022-10-19T17:06:28.594Z,13.80
2022-10-19T17:11:44.483Z,9.20
2022-10-19T17:14:12.349Z,10.30
2022-10-19T17:16:39.706Z,15.40
2022-10-19T17:19:08.018Z,15.90
2022-10-19T17:21:38.081Z,10.20
2022-10-19T17:24:07.619Z,13.60
2022-10-19T17:26:38.022Z,16.30
2022-10-19T17:29:05.940Z,18.60
2022-10-19T17:31:32.938Z,19.10
2022-10-19T17:34:01.398Z,15.70
2022-10-19T17:36:31.235Z,19.10
2022-10-19T17:41:27.374Z,22.90
2022-10-19T17:43:55.504Z,26.50
2022-10-19T17:46:25.958Z,26.20
2022-10-19T17:48:52.962Z,26.90
2022-10-19T17:51:28.853Z,29.50
2022-10-19T17:53:58.571Z,34.10
2022-10-19T17:56:26.273Z,36.50
2022-10-19T17:58:53.917Z,30.40
2022-10-19T18:01:21.860Z,30.50
2022-10-19T18:03:49.875Z,27.60
2022-10-19T18:06:25.772Z,27.10
2022-10-19T18:08:54.905Z,23.70
2022-10-19T18:11:28.147Z,25.10
2022-10-19T18:13:58.293Z,25.30
2022-10-19T18:16:28.282Z,23.50
2022-10-19T18:21:28.146Z,23.70
2022-10-19T18:23:56.453Z,21.30
2022-10-19T18:26:27.268Z,17.90
2022-10-19T18:28:55.740Z,16.50
2022-10-19T18:31:25.861Z,13.00
2022-10-19T18:34:04.819Z,11.80
2022-10-19T18:36:32.732Z,19.50
2022-10-19T18:39:01.759Z,32.20
2022-10-19T18:41:29.522Z,33.70
2022-10-19T18:44:00.748Z,22.20
2022-10-19T18:46:27.733Z,27.50
2022-10-19T18:48:54.979Z,35.80
2022-10-19T18:51:23.089Z,37.70
2022-10-19T18:53:50.223Z,44.50
2022-10-19T18:56:19.435Z,44.20
2022-10-19T18:58:46.917Z,36.80
2022-10-19T19:01:20.310Z,46.80
2022-10-19T19:03:52.108Z,43.50
2022-10-19T19:06:28.390Z,51.70
2022-10-19T19:08:56.857Z,53.70
2022-10-19T19:11:31.738Z,48.60
2022-10-19T19:14:23.562Z,31.00
2022-10-19T19:16:50.445Z,22.20
2022-10-19T19:19:19.123Z,17.50
2022-10-19T19:21:46.827Z,17.50
2022-10-19T19:24:17.106Z,17.10
2022-10-19T19:26:47.836Z,23.80
2022-10-19T19:29:16.080Z,29.60
2022-10-19T19:31:43.382Z,62.60
2022-10-19T19:34:10.475Z,102.80
2022-10-19T19:36:39.370Z,107.30
2022-10-19T19:39:06.280Z,69.90
2022-10-19T19:41:33.598Z,45.20
2022-10-19T19:44:00.829Z,37.40
2022-10-19T19:46:28.012Z,36.30
2022-10-19T19:49:02.828Z,45.10
2022-10-19T19:51:31.457Z,46.50
2022-10-19T19:53:58.920Z,63.70
2022-10-19T19:56:26.627Z,64.30
2022-10-19T19:58:59.161Z,53.90
2022-10-19T20:01:26.811Z,41.60
2022-10-19T20:03:53.802Z,44.10
2022-10-19T20:06:23.662Z,57.10
2022-10-19T20:08:56.015Z,54.90
2022-10-19T20:11:25.144Z,75.20
2022-10-19T20:13:52.257Z,92.40
2022-10-19T20:16:25.122Z,76.00
2022-10-19T20:19:00.618Z,55.00
2022-10-19T20:21:27.626Z,46.70
2022-10-19T20:23:54.507Z,43.50
2022-10-19T20:26:23.589Z,43.70
2022-10-19T20:28:51.127Z,40.10
2022-10-19T20:31:19.314Z,45.40
2022-10-19T20:33:47.408Z,37.60
2022-10-19T20:36:17.107Z,24.80
2022-10-19T20:38:50.254Z,18.90
2022-10-19T20:41:18.784Z,27.30
2022-10-19T20:43:45.762Z,20.60
2022-10-19T20:46:15.509Z,16.00
2022-10-19T20:48:42.462Z,16.60
2022-10-19T20:51:15.155Z,14.20
2022-10-19T20:53:45.765Z,10.80
2022-10-19T20:56:15.122Z,18.10
2022-10-19T20:58:43.254Z,34.00
2022-10-19T21:01:18.328Z,47.40
2022-10-19T21:03:53.802Z,49.80
2022-10-19T21:06:23.793Z,44.40
2022-10-19T21:11:23.780Z,29.70
2022-10-19T21:14:00.401Z,25.80
2022-10-19T21:16:35.261Z,21.50
2022-10-19T21:19:13.572Z,23.20
2022-10-19T21:21:42.953Z,25.80
2022-10-19T21:24:13.769Z,38.10
2022-10-19T21:26:41.573Z,39.80
2022-10-19T21:29:10.650Z,25.80
2022-10-19T21:31:45.173Z,16.90
2022-10-19T21:34:17.826Z,18.00
2022-10-19T21:39:11.829Z,43.10
2022-10-19T21:41:38.831Z,42.60
2022-10-19T21:44:08.769Z,36.80
2022-10-19T21:49:02.770Z,29.80
2022-10-19T21:51:38.687Z,25.30
2022-10-19T21:54:07.803Z,26.60
2022-10-19T21:56:34.766Z,22.60
2022-10-19T21:59:01.678Z,24.70
2022-10-19T22:01:30.177Z,32.00
2022-10-19T22:03:58.782Z,63.00
2022-10-19T22:06:28.293Z,55.40
2022-10-19T22:08:56.320Z,41.10
2022-10-19T22:11:23.940Z,32.20
2022-10-19T22:13:58.815Z,32.50
2022-10-19T22:16:27.675Z,29.30
2022-10-19T22:18:55.649Z,23.10
2022-10-19T22:21:31.093Z,18.70
2022-10-19T22:24:07.376Z,15.90
2022-10-19T22:26:37.730Z,16.30
2022-10-19T22:29:06.054Z,18.90
2022-10-19T22:31:33.670Z,15.50
2022-10-19T22:34:03.928Z,15.20
2022-10-19T22:36:30.975Z,17.40
2022-10-19T22:38:57.886Z,16.30
2022-10-19T22:41:24.697Z,19.90
2022-10-19T22:43:51.605Z,22.10
2022-10-19T22:46:18.527Z,44.50
2022-10-19T22:48:45.351Z,54.30
2022-10-19T22:51:12.336Z,37.50
2022-10-19T22:53:39.230Z,18.50
2022-10-19T22:56:06.717Z,15.30
2022-10-19T22:58:33.517Z,11.70
2022-10-19T23:01:01.730Z,11.30
2022-10-19T23:03:28.619Z,14.20
2022-10-19T23:05:55.605Z,10.30
2022-10-19T23:08:22.422Z,13.00
2022-10-19T23:10:49.384Z,14.40
2022-10-19T23:13:16.334Z,14.90
2022-10-19T23:15:44.213Z,14.70
2022-10-19T23:18:12.306Z,14.60
2022-10-19T23:20:39.181Z,15.90
2022-10-19T23:23:05.981Z,15.20
2022-10-19T23:28:04.950Z,14.60
2022-10-19T23:30:31.774Z,14.00
2022-10-19T23:32:58.667Z,14.20
2022-10-19T23:35:25.471Z,12.80
2022-10-19T23:37:52.390Z,11.70
2022-10-19T23:40:19.197Z,11.70
2022-10-19T23:42:46.109Z,12.80
2022-10-19T23:45:14.676Z,11.70
2022-10-19T23:47:41.649Z,16.20
2022-10-19T23:50:08.638Z,15.60
2022-10-19T23:52:35.697Z,14.90
2022-10-19T23:55:03.003Z,11.70
2022-10-19T23:57:29.910Z,11.20
2022-10-19T23:59:56.800Z,12.10
